createdAt,value
2022-08-29T00:01:36.300Z,16.70
2022-08-29T00:04:04.925Z,16.71
2022-08-29T00:06:34.452Z,16.71
2022-08-29T00:09:02.509Z,16.80
2022-08-29T00:11:31.686Z,16.75
2022-08-29T00:14:00.593Z,16.64
2022-08-29T00:16:28.504Z,16.55
2022-08-29T00:18:57.150Z,16.46
2022-08-29T00:21:25.676Z,16.47
2022-08-29T00:23:53.525Z,16.45
2022-08-29T00:26:21.391Z,16.37
2022-08-29T00:28:50.544Z,16.40
2022-08-29T00:31:18.455Z,16.26
2022-08-29T00:33:46.275Z,16.35
2022-08-29T00:36:14.381Z,16.30
2022-08-29T00:38:42.407Z,16.23
2022-08-29T00:41:11.219Z,16.18
2022-08-29T00:43:39.653Z,16.35
2022-08-29T00:46:32.941Z,16.23
2022-08-29T00:49:05.928Z,16.44
2022-08-29T00:51:33.984Z,16.41
2022-08-29T00:54:05.779Z,16.34
2022-08-29T00:56:34.252Z,16.40
2022-08-29T00:59:05.029Z,16.13
2022-08-29T01:01:34.567Z,16.27
2022-08-29T01:04:02.662Z,16.18
2022-08-29T01:06:35.018Z,16.27
2022-08-29T01:09:03.503Z,16.07
2022-08-29T01:11:49.709Z,16.03
2022-08-29T01:14:19.307Z,16.06
2022-08-29T01:16:50.011Z,16.14
2022-08-29T01:19:27.823Z,16.11
2022-08-29T01:22:04.182Z,16.09
2022-08-29T01:24:40.243Z,15.98
2022-08-29T01:27:08.834Z,16.08
2022-08-29T01:29:37.115Z,16.02
2022-08-29T01:32:06.377Z,16.01
2022-08-29T01:34:34.250Z,15.94
2022-08-29T01:37:04.374Z,15.82
2022-08-29T01:39:38.517Z,15.93
2022-08-29T01:42:10.565Z,15.90
2022-08-29T01:44:39.886Z,15.79
2022-08-29T01:47:11.335Z,15.87
2022-08-29T01:49:40.723Z,15.83
2022-08-29T01:52:09.407Z,15.78
2022-08-29T01:54:38.512Z,15.67
2022-08-29T01:57:09.717Z,15.57
2022-08-29T01:59:41.514Z,15.58
2022-08-29T02:02:15.529Z,15.44
2022-08-29T02:04:43.707Z,15.50
2022-08-29T02:07:12.847Z,15.46
2022-08-29T02:09:45.658Z,15.43
2022-08-29T02:12:14.252Z,15.41
2022-08-29T02:14:42.746Z,15.48
2022-08-29T02:17:10.994Z,15.45
2022-08-29T02:19:39.948Z,15.43
2022-08-29T02:22:08.913Z,15.31
2022-08-29T02:24:36.916Z,15.26
2022-08-29T02:27:06.356Z,15.38
2022-08-29T02:29:38.388Z,15.25
2022-08-29T02:32:08.350Z,15.22
2022-08-29T02:34:36.700Z,15.31
2022-08-29T02:37:05.289Z,15.29
2022-08-29T02:39:34.163Z,15.14
2022-08-29T02:42:02.043Z,15.17
2022-08-29T02:44:31.768Z,15.11
2022-08-29T02:46:59.597Z,15.26
2022-08-29T02:49:27.383Z,15.21
2022-08-29T02:51:55.172Z,15.18
2022-08-29T02:54:23.601Z,15.24
2022-08-29T02:56:51.668Z,15.18
2022-08-29T02:59:19.431Z,15.08
2022-08-29T03:01:48.598Z,14.98
2022-08-29T03:04:16.450Z,14.87
2022-08-29T03:06:44.240Z,14.67
2022-08-29T03:09:12.047Z,14.82
2022-08-29T03:11:39.847Z,14.89
2022-08-29T03:14:07.635Z,14.90
2022-08-29T03:16:35.889Z,14.81
2022-08-29T03:19:05.342Z,14.78
2022-08-29T03:21:33.593Z,14.85
2022-08-29T03:24:01.371Z,14.70
2022-08-29T03:26:29.232Z,14.73
2022-08-29T03:28:57.027Z,14.74
2022-08-29T03:31:24.852Z,14.71
2022-08-29T03:33:52.739Z,14.68
2022-08-29T03:36:21.871Z,14.66
2022-08-29T03:38:49.837Z,14.53
2022-08-29T03:41:23.170Z,14.54
2022-08-29T03:43:51.633Z,14.45
2022-08-29T03:46:19.601Z,14.50
2022-08-29T03:48:48.193Z,14.44
2022-08-29T03:51:16.709Z,14.19
2022-08-29T03:53:46.048Z,14.20
2022-08-29T03:56:18.384Z,14.15
2022-08-29T03:58:51.884Z,14.35
2022-08-29T04:01:22.621Z,14.45
2022-08-29T04:03:51.229Z,14.32
2022-08-29T04:06:19.371Z,14.45
2022-08-29T04:08:48.546Z,14.38
2022-08-29T04:11:20.030Z,14.17
2022-08-29T04:13:49.522Z,14.23
2022-08-29T04:16:20.521Z,14.12
2022-08-29T04:18:49.018Z,14.24
2022-08-29T04:21:17.243Z,14.08
2022-08-29T04:23:47.318Z,14.11
2022-08-29T04:29:08.175Z,14.04
2022-08-29T04:31:36.821Z,14.09
2022-08-29T04:34:06.087Z,13.91
2022-08-29T04:36:35.061Z,13.97
2022-08-29T04:39:03.251Z,13.87
2022-08-29T04:41:33.251Z,14.04
2022-08-29T04:44:02.962Z,14.04
2022-08-29T04:46:30.989Z,14.13
2022-08-29T04:49:03.398Z,13.87
2022-08-29T04:51:34.305Z,13.89
2022-08-29T04:54:02.774Z,13.84
2022-08-29T04:56:31.983Z,13.71
2022-08-29T04:58:59.756Z,13.89
2022-08-29T05:01:27.798Z,13.90
2022-08-29T05:03:56.506Z,13.87
2022-08-29T05:06:25.289Z,14.13
2022-08-29T05:08:59.390Z,13.93
2022-08-29T05:11:29.493Z,13.98
2022-08-29T05:14:00.065Z,13.90
2022-08-29T05:16:29.925Z,13.94
2022-08-29T05:18:59.452Z,14.01
2022-08-29T05:21:33.971Z,13.98
2022-08-29T05:24:05.488Z,14.28
2022-08-29T05:26:37.052Z,14.10
2022-08-29T05:29:08.413Z,14.18
2022-08-29T05:31:37.501Z,14.25
2022-08-29T05:34:32.417Z,14.47
2022-08-29T05:36:54.268Z,14.49
2022-08-29T05:39:22.119Z,14.31
2022-08-29T05:41:50.173Z,14.52
2022-08-29T05:44:19.341Z,14.58
2022-08-29T05:46:47.589Z,14.43
2022-08-29T05:49:16.167Z,14.42
2022-08-29T05:51:44.010Z,14.34
2022-08-29T05:54:11.924Z,14.40
2022-08-29T05:56:39.688Z,14.33
2022-08-29T05:59:07.466Z,14.52
2022-08-29T06:01:36.576Z,14.71
2022-08-29T06:04:05.507Z,14.75
2022-08-29T06:06:33.559Z,14.83
2022-08-29T06:09:01.601Z,15.07
2022-08-29T06:11:31.906Z,15.04
2022-08-29T06:14:01.958Z,15.31
2022-08-29T06:16:31.189Z,15.26
2022-08-29T06:19:01.192Z,15.23
2022-08-29T06:21:29.170Z,15.39
2022-08-29T06:23:56.971Z,15.49
2022-08-29T06:26:24.947Z,15.52
2022-08-29T06:28:52.747Z,15.76
2022-08-29T06:31:22.126Z,15.76
2022-08-29T06:33:52.445Z,15.94
2022-08-29T06:36:22.056Z,16.06
2022-08-29T06:38:49.856Z,16.17
2022-08-29T06:41:19.009Z,16.13
2022-08-29T06:43:46.828Z,16.32
2022-08-29T06:46:22.331Z,16.38
2022-08-29T06:48:50.580Z,16.52
2022-08-29T06:51:18.749Z,16.72
2022-08-29T06:53:47.872Z,16.95
2022-08-29T06:56:15.896Z,17.08
2022-08-29T06:58:44.035Z,17.13
2022-08-29T07:01:14.343Z,17.21
2022-08-29T07:03:42.507Z,17.50
2022-08-29T07:06:11.023Z,17.67
2022-08-29T07:08:46.795Z,17.90
2022-08-29T07:11:25.586Z,17.86
2022-08-29T07:13:54.019Z,17.97
2022-08-29T07:16:22.923Z,18.12
2022-08-29T07:18:51.520Z,18.38
2022-08-29T07:21:21.857Z,18.58
2022-08-29T07:23:49.926Z,18.62
2022-08-29T07:26:20.574Z,18.78
2022-08-29T07:28:51.023Z,19.07
2022-08-29T07:31:20.017Z,19.14
2022-08-29T07:33:48.065Z,19.26
2022-08-29T07:36:22.440Z,19.28
2022-08-29T07:38:50.219Z,19.50
2022-08-29T07:41:19.923Z,19.70
2022-08-29T07:43:50.285Z,19.86
2022-08-29T07:46:19.433Z,19.92
2022-08-29T07:48:47.431Z,19.97
2022-08-29T07:51:19.177Z,20.26
2022-08-29T07:53:47.619Z,20.21
2022-08-29T07:56:19.134Z,20.16
2022-08-29T07:58:47.274Z,20.33
2022-08-29T08:01:20.964Z,20.42
2022-08-29T08:03:50.048Z,20.57
2022-08-29T08:06:18.405Z,20.88
2022-08-29T08:08:46.206Z,20.97
2022-08-29T08:11:14.519Z,21.28
2022-08-29T08:13:42.623Z,21.38
2022-08-29T08:16:12.976Z,21.39
2022-08-29T08:18:43.702Z,21.54
2022-08-29T08:21:12.787Z,21.74
2022-08-29T08:23:41.410Z,21.92
2022-08-29T08:26:10.539Z,22.06
2022-08-29T08:28:38.979Z,22.36
2022-08-29T08:31:09.055Z,22.60
2022-08-29T08:33:38.719Z,22.74
2022-08-29T08:36:14.418Z,22.97
2022-08-29T08:38:42.205Z,22.54
2022-08-29T08:41:21.815Z,22.69
2022-08-29T08:43:54.426Z,23.02
2022-08-29T08:46:31.288Z,23.06
2022-08-29T08:49:02.022Z,23.27
2022-08-29T08:51:35.157Z,23.28
2022-08-29T08:54:08.484Z,23.44
2022-08-29T08:56:42.163Z,23.41
2022-08-29T08:59:16.664Z,23.75
2022-08-29T09:01:53.449Z,24.07
2022-08-29T09:04:36.410Z,24.06
2022-08-29T09:07:29.666Z,24.48
2022-08-29T09:10:10.567Z,24.29
2022-08-29T09:12:51.428Z,24.28
2022-08-29T09:15:23.438Z,25.05
2022-08-29T09:17:53.708Z,24.45
2022-08-29T09:20:23.918Z,24.25
2022-08-29T09:23:00.651Z,24.86
2022-08-29T09:25:30.233Z,25.17
2022-08-29T09:27:59.085Z,25.12
2022-08-29T09:30:29.519Z,25.72
2022-08-29T09:33:02.561Z,25.92
2022-08-29T09:35:37.754Z,25.79
2022-08-29T09:38:09.096Z,25.97
2022-08-29T09:40:49.454Z,26.20
2022-08-29T09:43:18.762Z,25.19
2022-08-29T09:46:07.565Z,25.21
2022-08-29T09:48:37.336Z,25.80
2022-08-29T09:51:14.907Z,26.06
2022-08-29T09:53:44.691Z,26.28
2022-08-29T09:56:19.005Z,26.84
2022-08-29T09:58:57.882Z,26.98
2022-08-29T10:01:25.703Z,26.40
2022-08-29T10:03:59.804Z,27.09
2022-08-29T10:06:29.939Z,26.84
2022-08-29T10:09:00.528Z,27.47
2022-08-29T10:11:35.275Z,27.34
2022-08-29T10:14:12.529Z,26.82
2022-08-29T10:16:49.731Z,27.28
2022-08-29T10:19:21.470Z,27.70
2022-08-29T10:22:00.537Z,27.31
2022-08-29T10:24:49.195Z,27.31
2022-08-29T10:27:32.004Z,27.37
2022-08-29T10:30:07.163Z,26.85
2022-08-29T10:33:04.055Z,27.11
2022-08-29T10:35:39.894Z,27.24
2022-08-29T10:38:16.080Z,27.89
2022-08-29T10:40:49.488Z,27.81
2022-08-29T10:43:32.756Z,27.79
2022-08-29T10:46:11.778Z,27.54
2022-08-29T10:48:49.370Z,28.04
2022-08-29T10:51:23.348Z,28.63
2022-08-29T10:53:56.576Z,28.50
2022-08-29T10:56:30.593Z,28.53
2022-08-29T10:59:07.770Z,28.87
2022-08-29T11:01:40.148Z,29.05
2022-08-29T11:04:17.781Z,28.62
2022-08-29T11:06:53.380Z,28.09
2022-08-29T11:09:26.355Z,27.71
2022-08-29T11:12:17.434Z,28.08
2022-08-29T11:14:51.567Z,27.72
2022-08-29T11:17:21.875Z,28.40
2022-08-29T11:19:59.071Z,29.26
2022-08-29T11:22:32.249Z,28.87
2022-08-29T11:25:06.867Z,28.61
2022-08-29T11:27:46.466Z,28.58
2022-08-29T11:30:20.118Z,28.76
2022-08-29T11:33:00.525Z,29.19
2022-08-29T11:35:38.087Z,28.75
2022-08-29T11:38:43.093Z,29.12
2022-08-29T11:41:28.490Z,29.55
2022-08-29T11:44:09.653Z,28.47
2022-08-29T11:46:41.554Z,28.96
2022-08-29T11:49:34.188Z,29.24
2022-08-29T11:52:18.895Z,28.69
2022-08-29T11:55:16.102Z,30.02
2022-08-29T11:58:00.404Z,29.72
2022-08-29T12:00:57.525Z,28.50
2022-08-29T12:03:54.174Z,29.67
2022-08-29T12:06:38.779Z,28.82
2022-08-29T12:09:19.741Z,28.61
2022-08-29T12:12:28.474Z,29.51
2022-08-29T12:14:56.959Z,28.24
2022-08-29T12:18:01.284Z,28.95
2022-08-29T12:20:41.183Z,29.49
2022-08-29T12:23:21.223Z,29.67
2022-08-29T12:26:09.411Z,29.42
2022-08-29T12:28:48.447Z,29.37
2022-08-29T12:32:02.226Z,28.82
2022-08-29T12:34:49.745Z,30.08
2022-08-29T12:37:39.661Z,29.29
2022-08-29T12:40:42.221Z,30.26
2022-08-29T12:43:42.859Z,29.81
2022-08-29T12:46:14.936Z,29.85
2022-08-29T12:48:57.348Z,29.71
2022-08-29T12:51:35.132Z,29.47
2022-08-29T12:54:03.021Z,30.01
2022-08-29T12:56:30.940Z,29.37
2022-08-29T12:59:00.973Z,30.27
2022-08-29T13:01:30.843Z,30.08
2022-08-29T13:04:02.910Z,30.54
2022-08-29T13:06:31.074Z,30.61
2022-08-29T13:09:01.045Z,31.49
2022-08-29T13:11:30.321Z,31.39
2022-08-29T13:14:07.900Z,30.72
2022-08-29T13:16:36.083Z,30.65
2022-08-29T13:19:11.919Z,31.35
2022-08-29T13:21:39.910Z,31.76
2022-08-29T13:24:14.447Z,30.57
2022-08-29T13:27:02.805Z,29.67
2022-08-29T13:29:37.736Z,31.34
2022-08-29T13:32:27.573Z,31.21
2022-08-29T13:35:07.991Z,30.76
2022-08-29T13:37:37.881Z,31.08
2022-08-29T13:40:34.365Z,30.65
2022-08-29T13:43:02.419Z,30.60
2022-08-29T13:45:30.476Z,29.82
2022-08-29T13:48:02.400Z,29.17
2022-08-29T13:50:31.116Z,29.42
2022-08-29T13:52:59.836Z,29.78
2022-08-29T13:55:29.259Z,30.27
2022-08-29T13:57:58.500Z,30.27
2022-08-29T14:00:35.256Z,30.98
2022-08-29T14:03:07.017Z,30.30
2022-08-29T14:05:36.192Z,30.53
2022-08-29T14:08:06.016Z,30.66
2022-08-29T14:10:33.833Z,30.27
2022-08-29T14:13:03.396Z,30.38
2022-08-29T14:15:31.351Z,29.26
2022-08-29T14:17:59.555Z,30.34
2022-08-29T14:20:27.492Z,31.38
2022-08-29T14:22:55.237Z,30.22
2022-08-29T14:25:23.257Z,30.31
2022-08-29T14:27:51.378Z,30.71
2022-08-29T14:30:23.631Z,30.00
2022-08-29T14:32:51.515Z,30.09
2022-08-29T14:35:26.468Z,29.96
2022-08-29T14:37:59.986Z,30.22
2022-08-29T14:40:28.805Z,29.89
2022-08-29T14:42:57.938Z,29.03
2022-08-29T14:45:27.628Z,29.36
2022-08-29T14:47:55.679Z,30.19
2022-08-29T14:50:24.575Z,29.80
2022-08-29T14:52:52.500Z,29.37
2022-08-29T14:55:21.321Z,28.71
2022-08-29T14:57:49.189Z,28.79
2022-08-29T15:00:20.181Z,28.99
2022-08-29T15:02:49.725Z,29.61
2022-08-29T15:05:17.727Z,29.34
2022-08-29T15:07:45.614Z,28.78
2022-08-29T15:10:15.648Z,29.38
2022-08-29T15:12:43.371Z,28.93
2022-08-29T15:15:11.935Z,29.67
2022-08-29T15:17:43.512Z,29.37
2022-08-29T15:23:02.046Z,29.20
2022-08-29T15:25:30.180Z,29.28
2022-08-29T15:27:58.019Z,29.62
2022-08-29T15:30:26.543Z,29.59
2022-08-29T15:32:54.476Z,29.73
2022-08-29T15:35:24.001Z,30.01
2022-08-29T15:37:53.580Z,29.86
2022-08-29T15:40:21.483Z,29.41
2022-08-29T15:42:49.338Z,28.57
2022-08-29T15:45:17.535Z,29.72
2022-08-29T15:47:46.126Z,29.69
2022-08-29T15:50:15.028Z,29.77
2022-08-29T15:52:44.287Z,29.35
2022-08-29T15:55:12.816Z,29.57
2022-08-29T15:57:51.172Z,29.44
2022-08-29T16:00:30.148Z,29.44
2022-08-29T16:03:04.284Z,29.17
2022-08-29T16:05:34.266Z,29.45
2022-08-29T16:08:03.848Z,29.40
2022-08-29T16:10:32.200Z,29.02
2022-08-29T16:13:00.577Z,29.46
2022-08-29T16:15:31.032Z,29.23
2022-08-29T16:17:59.881Z,28.87
2022-08-29T16:20:27.855Z,28.87
2022-08-29T16:22:56.306Z,29.13
2022-08-29T16:25:26.177Z,29.22
2022-08-29T16:27:54.275Z,28.89
2022-08-29T16:30:22.375Z,28.84
2022-08-29T16:32:51.109Z,28.94
2022-08-29T16:35:19.852Z,29.07
2022-08-29T16:37:48.120Z,28.77
2022-08-29T16:40:33.219Z,28.98
2022-08-29T16:43:02.159Z,28.45
2022-08-29T16:45:30.071Z,28.43
2022-08-29T16:47:58.061Z,28.71
2022-08-29T16:50:27.673Z,28.58
2022-08-29T16:52:55.870Z,28.46
2022-08-29T16:55:24.297Z,28.10
2022-08-29T16:58:10.915Z,28.17
2022-08-29T17:00:40.554Z,28.04
2022-08-29T17:03:08.755Z,27.77
2022-08-29T17:05:36.724Z,27.86
2022-08-29T17:08:04.011Z,27.92
2022-08-29T17:10:30.738Z,27.62
2022-08-29T17:12:58.781Z,27.70
2022-08-29T17:15:25.550Z,27.56
2022-08-29T17:17:53.365Z,27.18
2022-08-29T17:20:21.279Z,27.37
2022-08-29T17:22:49.093Z,27.32
2022-08-29T17:25:16.983Z,27.10
2022-08-29T17:28:00.831Z,27.25
2022-08-29T17:30:34.033Z,27.10
2022-08-29T17:33:01.936Z,27.01
2022-08-29T17:35:31.268Z,26.79
2022-08-29T17:37:59.601Z,26.61
2022-08-29T17:40:27.589Z,26.51
2022-08-29T17:42:55.466Z,26.17
2022-08-29T17:45:23.499Z,26.23
2022-08-29T17:47:52.676Z,25.96
2022-08-29T17:50:20.796Z,25.80
2022-08-29T17:52:48.571Z,25.75
2022-08-29T17:55:16.372Z,25.66
2022-08-29T17:57:44.167Z,25.28
2022-08-29T18:00:13.351Z,25.00
2022-08-29T18:02:41.752Z,24.90
2022-08-29T18:05:12.715Z,24.84
2022-08-29T18:07:40.705Z,24.90
2022-08-29T18:10:11.142Z,24.85
2022-08-29T18:12:39.755Z,24.63
2022-08-29T18:15:10.145Z,24.37
2022-08-29T18:17:38.202Z,24.37
2022-08-29T18:20:07.954Z,24.06
2022-08-29T18:22:38.248Z,23.77
2022-08-29T18:25:08.528Z,23.63
2022-08-29T18:27:36.171Z,23.67
2022-08-29T18:30:06.240Z,23.25
2022-08-29T18:32:37.250Z,23.11
2022-08-29T18:35:06.247Z,23.13
2022-08-29T18:37:34.018Z,22.95
2022-08-29T18:40:04.803Z,22.81
2022-08-29T18:42:41.428Z,22.60
2022-08-29T18:45:11.038Z,22.41
2022-08-29T18:47:39.417Z,22.43
2022-08-29T18:50:25.599Z,22.34
2022-08-29T18:52:54.970Z,22.10
2022-08-29T18:55:24.963Z,22.02
2022-08-29T18:57:54.138Z,21.76
2022-08-29T19:00:24.143Z,21.71
2022-08-29T19:02:52.135Z,21.64
2022-08-29T19:05:24.865Z,21.48
2022-08-29T19:07:53.394Z,21.10
2022-08-29T19:10:22.037Z,21.03
2022-08-29T19:12:51.321Z,20.89
2022-08-29T19:15:19.960Z,20.98
2022-08-29T19:17:48.038Z,21.05
2022-08-29T19:20:36.631Z,21.18
2022-08-29T19:23:04.879Z,21.04
2022-08-29T19:25:32.814Z,20.79
2022-08-29T19:28:02.485Z,20.58
2022-08-29T19:30:31.025Z,20.51
2022-08-29T19:32:59.080Z,20.61
2022-08-29T19:35:27.396Z,20.72
2022-08-29T19:37:56.684Z,20.33
2022-08-29T19:40:24.596Z,20.16
2022-08-29T19:42:52.635Z,20.17
2022-08-29T19:45:21.846Z,19.69
2022-08-29T19:47:49.799Z,19.41
2022-08-29T19:50:18.870Z,19.72
2022-08-29T19:52:47.363Z,19.91
2022-08-29T19:55:17.781Z,19.90
2022-08-29T19:57:47.376Z,19.90
2022-08-29T20:00:17.919Z,19.89
2022-08-29T20:02:47.259Z,19.60
2022-08-29T20:05:16.087Z,19.41
2022-08-29T20:07:45.324Z,19.49
2022-08-29T20:10:16.724Z,19.44
2022-08-29T20:12:49.397Z,19.43
2022-08-29T20:15:19.299Z,19.49
2022-08-29T20:17:48.475Z,19.56
2022-08-29T20:20:20.068Z,19.50
2022-08-29T20:22:48.970Z,19.01
2022-08-29T20:25:17.706Z,18.56
2022-08-29T20:27:46.568Z,18.81
2022-08-29T20:30:17.005Z,18.86
2022-08-29T20:32:47.775Z,18.99
2022-08-29T20:35:39.468Z,18.92
2022-08-29T20:38:06.920Z,18.80
2022-08-29T20:40:37.835Z,18.89
2022-08-29T20:43:06.247Z,18.88
2022-08-29T20:45:34.550Z,18.87
2022-08-29T20:48:02.506Z,18.72
2022-08-29T20:50:32.047Z,18.86
2022-08-29T20:52:59.891Z,18.77
2022-08-29T20:55:27.757Z,18.66
2022-08-29T20:57:55.565Z,18.42
2022-08-29T21:00:23.700Z,18.33
2022-08-29T21:03:09.003Z,17.83
2022-08-29T21:05:42.532Z,18.12
2022-08-29T21:08:12.596Z,18.20
2022-08-29T21:10:40.488Z,17.87
2022-08-29T21:13:09.411Z,17.71
2022-08-29T21:15:37.320Z,18.01
2022-08-29T21:18:05.710Z,18.18
2022-08-29T21:20:36.289Z,18.02
2022-08-29T21:23:11.432Z,17.90
2022-08-29T21:25:41.448Z,17.95
2022-08-29T21:28:09.418Z,17.90
2022-08-29T21:30:41.375Z,17.56
2022-08-29T21:33:13.015Z,17.51
2022-08-29T21:35:42.008Z,17.24
2022-08-29T21:38:12.164Z,17.29
2022-08-29T21:40:50.499Z,17.33
2022-08-29T21:43:19.282Z,17.59
2022-08-29T21:45:47.247Z,17.74
2022-08-29T21:48:15.370Z,17.57
2022-08-29T21:50:43.862Z,17.43
2022-08-29T21:53:14.238Z,17.48
2022-08-29T21:55:42.111Z,17.64
2022-08-29T21:58:09.976Z,17.46
2022-08-29T22:00:42.096Z,17.43
2022-08-29T22:03:12.297Z,17.40
2022-08-29T22:05:43.844Z,17.05
2022-08-29T22:08:13.332Z,17.03
2022-08-29T22:10:42.568Z,16.93
2022-08-29T22:13:10.613Z,16.73
2022-08-29T22:15:56.674Z,16.97
2022-08-29T22:18:24.622Z,17.05
2022-08-29T22:20:52.881Z,16.98
2022-08-29T22:23:25.411Z,16.78
2022-08-29T22:25:53.946Z,16.85
2022-08-29T22:28:21.764Z,16.74
2022-08-29T22:30:50.465Z,16.09
2022-08-29T22:33:18.508Z,16.51
2022-08-29T22:35:46.784Z,16.45
2022-08-29T22:38:14.746Z,16.55
2022-08-29T22:40:45.482Z,16.22
2022-08-29T22:43:13.547Z,16.20
2022-08-29T22:45:41.634Z,16.63
2022-08-29T22:48:09.696Z,16.20
2022-08-29T22:50:38.042Z,16.33
2022-08-29T22:53:06.386Z,16.40
2022-08-29T22:55:34.380Z,16.43
2022-08-29T22:58:04.756Z,16.48
2022-08-29T23:00:32.668Z,16.63
2022-08-29T23:03:02.179Z,16.45
2022-08-29T23:05:30.489Z,16.10
2022-08-29T23:07:58.311Z,15.83
2022-08-29T23:10:26.295Z,15.94
2022-08-29T23:12:54.089Z,16.08
2022-08-29T23:15:23.259Z,16.22
2022-08-29T23:17:51.062Z,16.28
2022-08-29T23:20:19.221Z,16.13
2022-08-29T23:22:47.230Z,16.00
2022-08-29T23:25:17.861Z,16.10
2022-08-29T23:27:45.786Z,16.07
2022-08-29T23:30:14.880Z,16.00
2022-08-29T23:32:44.137Z,15.81
2022-08-29T23:35:11.991Z,15.26
2022-08-29T23:37:39.990Z,15.36
2022-08-29T23:40:09.602Z,15.05
2022-08-29T23:42:37.923Z,15.08
2022-08-29T23:45:06.679Z,15.12
2022-08-29T23:47:36.060Z,15.42
2022-08-29T23:50:06.526Z,15.66
2022-08-29T23:52:34.483Z,14.79
2022-08-29T23:55:02.466Z,15.07
2022-08-29T23:57:30.243Z,15.19
